createdAt,value
2023-04-19T00:01:02.056Z,7.68
2023-04-19T00:06:10.592Z,8.65
2023-04-19T00:11:15.139Z,8.50
2023-04-19T00:16:17.669Z,7.85
2023-04-19T00:21:20.188Z,7.75
2023-04-19T00:26:22.777Z,7.50
2023-04-19T00:31:27.994Z,7.32
2023-04-19T00:36:30.890Z,6.47
2023-04-19T00:41:33.294Z,6.07
2023-04-19T00:46:37.959Z,5.68
2023-04-19T00:51:40.782Z,5.72
2023-04-19T00:56:45.173Z,5.60
2023-04-19T01:01:47.833Z,4.50
2023-04-19T01:06:55.032Z,5.00
2023-04-19T01:12:02.224Z,4.55
2023-04-19T01:17:06.650Z,4.25
2023-04-19T01:22:09.613Z,3.88
2023-04-19T01:27:12.886Z,3.60
2023-04-19T01:32:15.362Z,3.45
2023-04-19T01:37:31.645Z,3.50
2023-04-19T01:42:34.123Z,3.38
2023-04-19T01:47:36.846Z,4.03
2023-04-19T01:57:47.263Z,3.83
2023-04-19T02:02:50.056Z,4.50
2023-04-19T02:07:55.690Z,4.50
2023-04-19T02:12:58.162Z,3.38
2023-04-19T02:18:00.772Z,3.90
2023-04-19T02:23:03.416Z,3.93
2023-04-19T02:28:06.388Z,3.70
2023-04-19T02:33:08.947Z,3.27
2023-04-19T02:38:14.369Z,4.35
2023-04-19T02:43:17.414Z,3.67
2023-04-19T02:53:23.395Z,3.35
2023-04-19T02:58:26.987Z,3.90
2023-04-19T03:03:40.214Z,3.83
2023-04-19T03:08:44.259Z,3.92
2023-04-19T03:13:47.923Z,4.18
2023-04-19T03:18:50.761Z,4.18
2023-04-19T03:23:58.169Z,4.22
2023-04-19T03:29:02.540Z,4.40
2023-04-19T03:34:28.346Z,4.28
2023-04-19T03:39:30.938Z,4.47
2023-04-19T03:44:38.399Z,4.70
2023-04-19T03:49:43.084Z,5.18
2023-04-19T03:54:46.069Z,4.20
2023-04-19T04:00:09.045Z,4.45
2023-04-19T04:05:16.499Z,5.28
2023-04-19T04:10:21.716Z,8.25
2023-04-19T04:15:24.364Z,5.38
2023-04-19T04:20:32.861Z,4.65
2023-04-19T04:25:56.775Z,5.55
2023-04-19T04:31:01.300Z,5.65
2023-04-19T04:36:09.836Z,5.13
2023-04-19T04:41:13.463Z,5.40
2023-04-19T04:46:20.042Z,13.67
2023-04-19T04:51:22.871Z,23.30
2023-04-19T04:56:29.044Z,7.10
2023-04-19T05:01:32.188Z,7.38
2023-04-19T05:06:34.872Z,6.63
2023-04-19T05:11:37.551Z,5.68
2023-04-19T05:16:41.267Z,7.22
2023-04-19T05:26:49.250Z,5.60
2023-04-19T05:31:55.977Z,6.27
2023-04-19T05:37:05.237Z,5.20
2023-04-19T05:42:08.415Z,4.88
2023-04-19T05:47:11.915Z,5.00
2023-04-19T05:52:46.687Z,4.28
2023-04-19T05:58:03.836Z,3.97
2023-04-19T06:03:07.753Z,5.28
2023-04-19T06:08:10.517Z,3.90
2023-04-19T06:13:13.345Z,3.42
2023-04-19T06:18:20.921Z,4.20
2023-04-19T06:23:23.857Z,4.15
2023-04-19T06:28:26.923Z,3.80
2023-04-19T06:33:31.532Z,4.18
2023-04-19T06:38:36.550Z,4.88
2023-04-19T06:43:43.057Z,4.63
2023-04-19T06:48:52.976Z,4.10
2023-04-19T06:53:55.573Z,4.07
2023-04-19T06:58:58.112Z,3.60
2023-04-19T07:04:03.778Z,4.18
2023-04-19T07:09:09.473Z,4.93
2023-04-19T07:14:14.640Z,4.15
2023-04-19T07:19:19.493Z,4.70
2023-04-19T07:24:21.968Z,6.28
2023-04-19T07:29:24.403Z,5.40
2023-04-19T07:34:26.970Z,7.68
2023-04-19T07:39:31.271Z,5.20
2023-04-19T07:44:33.846Z,5.57
2023-04-19T07:49:36.478Z,6.32
2023-04-19T07:54:39.917Z,4.90
2023-04-19T07:59:42.457Z,4.70
2023-04-19T08:04:46.433Z,4.55
2023-04-19T08:09:49.732Z,4.90
2023-04-19T08:15:03.771Z,4.50
2023-04-19T08:20:12.429Z,5.20
2023-04-19T08:25:15.712Z,11.55
2023-04-19T08:30:18.261Z,4.80
2023-04-19T08:35:21.442Z,5.20
2023-04-19T08:40:24.772Z,5.70
2023-04-19T08:45:28.871Z,4.28
2023-04-19T08:50:38.895Z,5.00
2023-04-19T08:56:08.823Z,4.85
2023-04-19T09:01:22.907Z,5.78
2023-04-19T09:06:38.150Z,10.20
2023-04-19T09:11:40.756Z,5.20
2023-04-19T09:16:44.117Z,9.00
2023-04-19T09:21:47.929Z,8.13
2023-04-19T09:26:54.973Z,8.70
2023-04-19T09:31:59.461Z,5.20
2023-04-19T09:37:29.660Z,12.70
2023-04-19T09:48:03.622Z,14.13
2023-04-19T09:53:06.880Z,10.10
2023-04-19T09:58:09.630Z,11.13
2023-04-19T10:03:12.699Z,9.07
2023-04-19T10:08:15.813Z,12.32
2023-04-19T10:13:26.685Z,15.82
2023-04-19T10:18:30.060Z,16.80
2023-04-19T10:23:33.389Z,13.95
2023-04-19T10:28:36.604Z,13.32
2023-04-19T10:33:40.998Z,17.67
2023-04-19T10:38:48.609Z,12.90
2023-04-19T10:43:58.374Z,8.85
2023-04-19T10:49:04.237Z,7.60
2023-04-19T10:54:33.052Z,6.93
2023-04-19T10:59:37.039Z,7.53
2023-04-19T11:04:48.903Z,6.75
2023-04-19T11:09:52.895Z,7.47
2023-04-19T11:14:59.992Z,9.02
2023-04-19T11:20:10.203Z,30.27
2023-04-19T11:25:21.354Z,27.48
2023-04-19T11:30:31.721Z,13.35
2023-04-19T11:35:35.132Z,11.63
2023-04-19T11:40:38.004Z,20.10
2023-04-19T11:45:44.193Z,19.80
2023-04-19T11:50:49.739Z,15.35
2023-04-19T11:55:56.677Z,25.77
2023-04-19T12:01:06.841Z,15.25
2023-04-19T12:06:15.415Z,12.10
2023-04-19T12:11:21.866Z,13.70
2023-04-19T12:16:29.274Z,11.48
2023-04-19T12:21:34.320Z,12.35
2023-04-19T12:26:38.423Z,11.82
2023-04-19T12:31:47.582Z,14.52
2023-04-19T12:36:55.009Z,12.98
2023-04-19T12:42:00.677Z,26.35
2023-04-19T12:47:16.226Z,38.10
2023-04-19T12:52:22.919Z,19.33
2023-04-19T12:57:26.420Z,14.53
2023-04-19T13:02:31.139Z,16.30
2023-04-19T13:07:33.993Z,18.55
2023-04-19T13:12:37.285Z,13.13
2023-04-19T13:17:40.243Z,16.30
2023-04-19T13:22:43.076Z,14.82
2023-04-19T13:27:47.342Z,16.83
2023-04-19T13:32:50.214Z,14.13
2023-04-19T13:37:53.820Z,15.30
2023-04-19T13:48:06.143Z,33.58
2023-04-19T13:53:08.799Z,19.88
2023-04-19T13:58:11.606Z,16.20
2023-04-19T14:03:14.736Z,29.07
2023-04-19T14:08:17.810Z,38.28
2023-04-19T14:13:20.645Z,29.97
2023-04-19T14:18:23.254Z,18.50
2023-04-19T14:23:26.055Z,16.02
2023-04-19T14:28:29.604Z,13.30
2023-04-19T14:38:35.513Z,15.07
2023-04-19T14:43:38.134Z,17.20
2023-04-19T14:48:41.864Z,15.50
2023-04-19T14:58:48.525Z,15.60
2023-04-19T15:03:51.520Z,13.47
2023-04-19T15:08:54.529Z,12.85
2023-04-19T15:13:57.053Z,14.30
2023-04-19T15:18:59.852Z,28.30
2023-04-19T15:24:04.833Z,24.85
2023-04-19T15:29:09.229Z,19.15
2023-04-19T15:34:12.301Z,22.35
2023-04-19T15:39:15.085Z,25.42
2023-04-19T15:44:17.984Z,25.50
2023-04-19T15:49:21.169Z,24.48
2023-04-19T15:54:23.728Z,31.08
2023-04-19T15:59:27.829Z,25.58
2023-04-19T16:04:33.491Z,27.80
2023-04-19T16:09:37.005Z,25.88
2023-04-19T16:14:42.616Z,27.08
2023-04-19T16:19:45.228Z,24.80
2023-04-19T16:24:47.807Z,24.00
2023-04-19T16:29:51.000Z,23.73
2023-04-19T16:34:53.617Z,21.90
2023-04-19T16:39:57.522Z,23.85
2023-04-19T16:45:00.065Z,20.70
2023-04-19T16:50:03.852Z,22.63
2023-04-19T16:55:07.513Z,15.13
2023-04-19T17:00:13.559Z,16.70
2023-04-19T17:05:16.609Z,20.25
2023-04-19T17:10:19.154Z,19.58
2023-04-19T17:15:21.708Z,19.13
2023-04-19T17:20:24.884Z,19.23
2023-04-19T17:25:27.607Z,24.88
2023-04-19T17:30:30.177Z,24.10
2023-04-19T17:35:32.855Z,24.75
2023-04-19T17:40:35.697Z,28.00
2023-04-19T17:45:38.179Z,37.07
2023-04-19T17:50:40.757Z,25.00
2023-04-19T17:55:43.330Z,31.40
2023-04-19T18:00:46.625Z,26.63
2023-04-19T18:05:49.675Z,22.98
2023-04-19T18:10:53.305Z,18.88
2023-04-19T18:15:55.885Z,17.67
2023-04-19T18:20:58.363Z,19.63
2023-04-19T18:26:02.717Z,18.90
2023-04-19T18:31:06.924Z,19.95
2023-04-19T18:36:10.165Z,19.83
2023-04-19T18:41:15.890Z,20.05
2023-04-19T18:46:18.984Z,25.13
2023-04-19T18:51:21.578Z,23.88
2023-04-19T18:57:01.349Z,21.05
2023-04-19T19:01:49.578Z,18.17
2023-04-19T19:06:52.365Z,24.45
2023-04-19T19:11:56.883Z,20.97
2023-04-19T19:16:59.622Z,21.13
2023-04-19T19:22:03.650Z,21.95
2023-04-19T19:27:06.578Z,18.90
2023-04-19T19:32:09.951Z,20.27
2023-04-19T19:42:17.136Z,23.63
2023-04-19T19:47:19.899Z,24.95
2023-04-19T19:52:22.615Z,24.10
2023-04-19T20:02:34.010Z,24.70
2023-04-19T20:08:00.655Z,25.42
2023-04-19T20:13:06.892Z,22.52
2023-04-19T20:18:09.534Z,20.90
2023-04-19T20:23:12.251Z,17.67
2023-04-19T20:28:15.316Z,19.75
2023-04-19T20:33:18.985Z,17.92
2023-04-19T20:38:23.560Z,20.45
2023-04-19T20:43:26.443Z,21.38
2023-04-19T20:48:29.182Z,22.30
2023-04-19T20:53:32.127Z,26.65
2023-04-19T20:58:35.331Z,26.50
2023-04-19T21:03:38.038Z,31.45
2023-04-19T21:08:40.862Z,24.30
2023-04-19T21:13:43.435Z,26.90
2023-04-19T21:18:46.553Z,32.42
2023-04-19T21:23:49.169Z,29.90
2023-04-19T21:28:52.232Z,25.70
2023-04-19T21:33:58.421Z,28.40
2023-04-19T21:39:01.076Z,28.23
2023-04-19T21:44:04.241Z,30.43
2023-04-19T21:49:10.799Z,32.17
2023-04-19T21:54:26.731Z,27.92
2023-04-19T21:59:36.053Z,27.27
2023-04-19T22:04:39.778Z,28.47
2023-04-19T22:09:42.326Z,27.70
2023-04-19T22:14:45.024Z,28.30
2023-04-19T22:19:48.905Z,28.08
2023-04-19T22:24:56.965Z,30.38
2023-04-19T22:30:00.637Z,30.73
2023-04-19T22:35:03.244Z,30.08
2023-04-19T22:40:06.988Z,28.03
2023-04-19T22:45:10.240Z,26.73
2023-04-19T22:50:12.810Z,38.50
2023-04-19T22:55:15.398Z,41.72
2023-04-19T23:00:19.460Z,36.13
2023-04-19T23:05:27.297Z,33.63
2023-04-19T23:10:30.032Z,37.25
2023-04-19T23:15:33.441Z,36.53
2023-04-19T23:20:36.120Z,40.38
2023-04-19T23:25:38.614Z,35.53
2023-04-19T23:30:46.369Z,37.95
2023-04-19T23:35:48.943Z,36.97
2023-04-19T23:40:51.658Z,37.03
2023-04-19T23:45:54.112Z,33.67
2023-04-19T23:50:56.552Z,37.58
2023-04-19T23:55:59.261Z,40.33
